• Join FlightAware (Why Join?)
  • Login
  • US Flag 
01:00AM EDT


 

Airport Tracker/Info


-or-


 

Live Flight TrackerFlight Track Log ✈ N143DE ✈ 08-May-2013 ✈ KTRI - KGPT

Flight Track Log - Related Links

Times and Time Zones

All times are in EDT time to prevent confusion due to time zone crossing. See the N143DE flight status page for this flight to view local times or setup timezone preferences in your user account.

Time Position Orientation Groundspeed Altitude Reporting Facility
EDT Latitude Longitude Course Direction KTS MPH feet Rate Location/Type
05:36PM 36.4111 -82.4650 210° Southwest 162 186 5,700  Level Atlanta Center
05:37PM 36.3800 -82.4914 214° Southwest 169 194 7,300 1,800 Climbing Atlanta Center
05:38PM 36.3408 -82.5258 215° Southwest 169 194 9,300 1,860 Climbing Atlanta Center
05:39PM 36.3017 -82.5650 216° Southwest 174 200 11,100 1,800 Climbing Atlanta Center
05:40PM 36.2669 -82.6122 228° Southwest 179 206 13,000 1,680 Climbing Atlanta Center
05:41PM 36.2342 -82.6589 229° Southwest 179 206 14,500 1,440 Climbing Atlanta Center
05:42PM 36.2011 -82.7058 229° Southwest 184 212 15,900 1,320 Climbing Atlanta Center
05:43PM 36.1706 -82.7578 234° Southwest 190 219 17,200 1,140 Climbing Atlanta Center
05:44PM 36.1419 -82.8122 237° Southwest 190 219 18,200 960 Climbing Atlanta Center
05:45PM 36.1153 -82.8667 239° Southwest 195 224 19,200 900 Climbing Atlanta Center
05:46PM 36.0844 -82.9236 236° Southwest 195 224 20,000 900 Climbing Atlanta Center
05:47PM 36.0475 -82.9731 227° Southwest 200 230 21,000 900 Climbing Atlanta Center
05:48PM 36.0081 -83.0222 225° Southwest 211 243 21,800 780 Climbing Atlanta Center
05:49PM 35.9647 -83.0717 223° Southwest 211 243 22,600 780 Climbing Atlanta Center
05:50PM 35.9233 -83.1208 224° Southwest 216 249 23,400 720 Climbing Atlanta Center
05:51PM 35.8800 -83.1725 224° Southwest 216 249 24,100 600 Climbing Atlanta Center
05:52PM 35.8367 -83.2292 227° Southwest 216 249 24,700 540 Climbing Atlanta Center
05:53PM 35.7911 -83.2811 223° Southwest 222 255 25,200 480 Climbing Atlanta Center
05:54PM 35.7475 -83.3325 224° Southwest 222 255 25,700 420 Climbing Atlanta Center
05:55PM 35.7039 -83.3867 225° Southwest 222 255 26,100 240 Climbing Atlanta Center
05:56PM 35.6542 -83.4433 223° Southwest 228 262 26,200  Climbing Atlanta Center
05:57PM 35.6044 -83.5022 224° Southwest 240 276 26,200 -60 Level Atlanta Center
05:58PM 35.5525 -83.5614 223° Southwest 246 283 26,100 -60 Descending Atlanta Center
05:59PM 35.5006 -83.6231 224° Southwest 258 297 26,100  Level Atlanta Center
06:00PM 35.4486 -83.6844 224° Southwest 258 297 26,100  Level Atlanta Center
06:01PM 35.3944 -83.7458 223° Southwest 258 297 26,100  Level Atlanta Center
06:02PM 35.3425 -83.8069 224° Southwest 264 304 26,100  Level Atlanta Center
06:03PM 35.2906 -83.8658 223° Southwest 264 304 26,100  Level Atlanta Center
06:04PM 35.2406 -83.9244 224° Southwest 264 304 26,100  Level Atlanta Center
06:05PM 35.1861 -83.9881 224° Southwest 264 304 26,100  Level Atlanta Center
06:06PM 35.1342 -84.0464 223° Southwest 264 304 26,200  Climbing Atlanta Center
06:07PM 35.0819 -84.1072 224° Southwest 264 304 26,200  Level Atlanta Center
06:08PM 35.0256 -84.1706 223° Southwest 264 304 26,200  Level Atlanta Center
06:09PM 34.9733 -84.2314 224° Southwest 264 304 26,200  Level Atlanta Center
06:10PM 34.9272 -84.2844 223° Southwest 264 304 26,200 -60 Level Atlanta Center
06:11PM 34.8728 -84.3425 221° Southwest 264 304 26,100  Descending Atlanta Center
06:12PM 34.8164 -84.4056 223° Southwest 264 304 26,200  Climbing Atlanta Center
06:13PM 34.7639 -84.4636 222° Southwest 264 304 26,200  Level Atlanta Center
06:14PM 34.7136 -84.5264 226° Southwest 264 304 26,200  Level Atlanta Center
06:15PM 34.6614 -84.5867 224° Southwest 264 304 26,200  Level Atlanta Center
06:16PM 34.6067 -84.6419 220° Southwest 259 298 26,200  Level Atlanta Center
06:17PM 34.5564 -84.7022 225° Southwest 264 304 26,200  Level Atlanta Center
06:18PM 34.5039 -84.7622 223° Southwest 264 304 26,200  Level Atlanta Center
06:19PM 34.4514 -84.8197 222° Southwest 264 304 26,200  Level Atlanta Center
06:20PM 34.4008 -84.8772 223° Southwest 264 304 26,200  Level Atlanta Center
06:21PM 34.3483 -84.9344 222° Southwest 264 304 26,200  Level Atlanta Center
06:22PM 34.2978 -84.9942 224° Southwest 264 304 26,200  Level Atlanta Center
06:23PM 34.2472 -85.0517 223° Southwest 264 304 26,200  Level Atlanta Center
06:24PM 34.1989 -85.1036 222° Southwest 264 304 26,200  Level Atlanta Center
06:25PM 34.1461 -85.1633 223° Southwest 264 304 26,200  Level Atlanta Center
06:26PM 34.0911 -85.2203 221° Southwest 264 304 26,200  Level Atlanta Center
06:27PM 34.0428 -85.2772 224° Southwest 264 304 26,200  Level Atlanta Center
06:28PM 33.9878 -85.3367 222° Southwest 264 304 26,200  Level Atlanta Center
06:29PM 33.9392 -85.3933 224° Southwest 259 298 26,200  Level Atlanta Center
06:30PM 33.8842 -85.4525 222° Southwest 265 305 26,200  Level Atlanta Center
06:31PM 33.8314 -85.5117 223° Southwest 265 305 26,200  Level Atlanta Center
06:32PM 33.7722 -85.5733 221° Southwest 265 305 26,200  Level Atlanta Center
06:33PM 33.7233 -85.6322 225° Southwest 265 305 26,200  Level Atlanta Center
06:34PM 33.6664 -85.6886 220° Southwest 265 305 26,200  Level Atlanta Center
06:35PM 33.6133 -85.7475 223° Southwest 259 298 26,200  Level Atlanta Center
06:36PM 33.5603 -85.8014 220° Southwest 259 298 26,200 -60 Level Atlanta Center
06:37PM 33.5053 -85.8550 219° Southwest 259 298 26,100 -60 Descending Atlanta Center
06:38PM 33.4522 -85.9211 226° Southwest 264 304 26,100  Level Atlanta Center
06:39PM 33.3992 -85.9772 221° Southwest 264 304 26,100  Level Atlanta Center
06:40PM 33.3461 -86.0331 221° Southwest 264 304 26,100  Level Atlanta Center
06:41PM 33.2931 -86.0917 223° Southwest 264 304 26,100  Level Atlanta Center
06:42PM 33.2397 -86.1475 221° Southwest 264 304 26,100  Level Atlanta Center
06:43PM 33.1844 -86.2081 223° Southwest 264 304 26,100  Level Atlanta Center
06:44PM 33.1314 -86.2639 221° Southwest 264 304 26,200  Climbing Atlanta Center
06:45PM 33.0781 -86.3244 224° Southwest 264 304 26,200  Level Atlanta Center
06:46PM 33.0269 -86.3803 222° Southwest 264 304 26,200  Level Atlanta Center
06:47PM 32.9714 -86.4381 221° Southwest 264 304 26,200  Level Atlanta Center
06:48PM 32.9203 -86.4936 222° Southwest 264 304 26,200  Level Atlanta Center
06:49PM 32.8650 -86.5489 220° Southwest 264 304 26,200  Level Atlanta Center
06:50PM 32.8114 -86.6092 223° Southwest 264 304 26,200  Level Atlanta Center
06:51PM 32.7581 -86.6669 222° Southwest 264 304 26,200  Level Atlanta Center
06:52PM 32.7047 -86.7222 221° Southwest 264 304 26,200  Level Atlanta Center
06:53PM 32.6514 -86.7797 222° Southwest 264 304 26,200  Level Atlanta Center
06:54PM 32.5958 -86.8372 221° Southwest 264 304 26,200  Level Atlanta Center
06:55PM 32.5486 -86.8897 223° Southwest 264 304 26,200  Level Atlanta Center
06:56PM 32.4931 -86.9422 219° Southwest 264 304 26,200  Level Atlanta Center
06:57PM 32.4417 -86.9997 223° Southwest 264 304 26,200  Level Atlanta Center
06:58PM 32.3903 -87.0569 223° Southwest 264 304 26,200  Level Atlanta Center
06:59PM 32.3367 -87.1117 221° Southwest 264 304 26,200  Level Atlanta Center
07:00PM 32.2831 -87.1639 219° Southwest 264 304 26,200  Level Atlanta Center
07:01PM 32.2294 -87.2183 221° Southwest 264 304 26,200  Level Atlanta Center
07:02PM 32.1758 -87.2756 222° Southwest 264 304 26,200  Level Atlanta Center
07:03PM 32.1244 -87.3325 223° Southwest 257 296 26,200  Level Atlanta Center
07:04PM 32.0686 -87.3867 219° Southwest 257 296 26,200  Level Atlanta Center
07:05PM 32.0169 -87.4411 222° Southwest 257 296 26,200  Level Atlanta Center
07:07PM 31.9025 -87.5556 220° Southwest 257 296 26,200  Level Houston Center
07:08PM 31.8503 -87.6125 223° Southwest 255 293 26,200  Level Houston Center
07:09PM 31.7972 -87.6667 221° Southwest 253 291 26,200  Level Houston Center
07:10PM 31.7439 -87.7222 222° Southwest 256 295 26,200  Level Houston Center
07:11PM 31.6800 -87.7878 221° Southwest 254 292 26,200  Level Houston Center
07:12PM 31.6269 -87.8425 221° Southwest 255 293 26,200  Level Houston Center
07:13PM 31.5742 -87.8986 222° Southwest 256 295 26,200  Level Houston Center
07:14PM 31.5194 -87.9536 221° Southwest 258 297 26,200  Level Houston Center
07:15PM 31.4656 -88.0075 220° Southwest 257 296 26,200 -540 Level Houston Center
07:16PM 31.4089 -88.0658 221° Southwest 270 311 25,100 -1,380 Descending Houston Center
07:17PM 31.3386 -88.1378 221° Southwest 279 321 23,400 -1,680 Descending Houston Center
07:18PM 31.2792 -88.1986 221° Southwest 284 327 21,700 -1,560 Descending Houston Center
07:19PM 31.2200 -88.2606 222° Southwest 288 331 20,200 -1,500 Descending Houston Center
07:20PM 31.1614 -88.3194 221° Southwest 282 325 18,700 -1,620 Descending Houston Center
07:21PM 31.0925 -88.3867 220° Southwest 274 315 16,900 -1,680 Descending Houston Center
07:22PM 31.0347 -88.4422 219° Southwest 274 315 15,200 -1,500 Descending Houston Center
07:23PM 30.9808 -88.4972 221° Southwest 262 302 13,900 -1,200 Descending Houston Center
07:24PM 30.9294 -88.5486 221° Southwest 247 284 12,800 -960 Descending Houston Center
07:25PM 30.8789 -88.6003 221° Southwest 243 280 12,000 -540 Descending Houston Center
07:26PM 30.8242 -88.6542 220° Southwest 221 254 11,700 -540 Descending Houston Center
07:27PM 30.7783 -88.7000 221° Southwest 217 250 11,000 -360 Descending Houston Center
07:28PM 30.7431 -88.7506 231° Southwest 206 237 11,000 -480 Level Houston Center
07:29PM 30.7086 -88.7972 229° Southwest 194 223 10,100 -1,380 Descending Houston Center
07:31PM 30.6678 -88.8558 231° Southwest 224 258 8,200 -1,680 Descending Houston Center
07:32PM 30.6283 -88.9183 234° Southwest 238 274 6,700 -1,500 Descending Houston Center
07:33PM 30.5892 -88.9833 235° Southwest 226 260 5,200 -1,260 Descending Houston Center
07:34PM 30.5561 -89.0400 236° Southwest 216 249 4,100 -1,020 Descending Houston Center
07:35PM 30.5253 -89.0939 236° Southwest 205 236 3,100 -1,140 Descending Houston Center
07:36PM 30.4753 -89.1189 203° Southwest 181 208 1,800 -1,020 Descending Houston Center
07:37PM 30.4439 -89.1142 173° South 169 194 1,000 -780 Descending Houston Center
07:39PM 30.4073 -89.0701 221° Southwest  Level Estimated
07:46PM 30.4073 -89.0701 221° Southwest  Level Estimated
07:47PM 30.4073 -89.0701 221° Southwest  Level Estimated